createdAt,value
2019-02-09T00:00:30.675Z,5.33
2019-02-09T00:03:02.834Z,5.15
2019-02-09T00:05:34.325Z,4.83
2019-02-09T00:08:06.931Z,5.67
2019-02-09T00:10:38.461Z,4.90
2019-02-09T00:13:10.009Z,5.20
2019-02-09T00:15:41.710Z,5.25
2019-02-09T00:18:13.019Z,5.25
2019-02-09T00:20:44.468Z,3.92
2019-02-09T00:23:15.916Z,4.95
2019-02-09T00:25:47.331Z,4.60
2019-02-09T00:28:18.967Z,4.60
2019-02-09T00:30:50.271Z,4.75
2019-02-09T00:33:21.646Z,3.92
2019-02-09T00:35:53.031Z,4.20
2019-02-09T00:38:24.435Z,4.28
2019-02-09T00:40:55.766Z,4.20
2019-02-09T00:43:27.226Z,4.42
2019-02-09T00:45:58.525Z,3.80
2019-02-09T00:48:29.912Z,4.80
2019-02-09T00:51:02.904Z,4.47
2019-02-09T00:53:34.324Z,3.98
2019-02-09T00:56:05.836Z,4.30
2019-02-09T00:58:37.288Z,4.47
2019-02-09T01:01:09.070Z,3.95
2019-02-09T01:03:40.499Z,3.67
2019-02-09T01:06:11.940Z,4.97
2019-02-09T01:08:43.375Z,5.50
2019-02-09T01:11:14.779Z,5.87
2019-02-09T01:13:46.271Z,5.22
2019-02-09T01:16:17.747Z,5.00
2019-02-09T01:18:49.206Z,5.45
2019-02-09T01:21:20.577Z,5.67
2019-02-09T01:23:51.998Z,5.03
2019-02-09T01:26:23.579Z,4.28
2019-02-09T01:28:54.973Z,4.15
2019-02-09T01:31:26.524Z,4.25
2019-02-09T01:33:58.078Z,4.30
2019-02-09T01:36:29.563Z,3.77
2019-02-09T01:39:01.027Z,4.62
2019-02-09T01:41:34.361Z,4.17
2019-02-09T01:44:05.680Z,3.92
2019-02-09T01:46:37.131Z,3.98
2019-02-09T01:49:08.544Z,4.10
2019-02-09T01:51:40.007Z,4.12
2019-02-09T01:54:11.470Z,3.67
2019-02-09T01:56:42.915Z,4.00
2019-02-09T01:59:15.811Z,3.45
2019-02-09T02:01:47.258Z,4.42
2019-02-09T02:04:18.635Z,4.60
2019-02-09T02:06:50.099Z,4.00
2019-02-09T02:09:21.521Z,4.65
2019-02-09T02:11:52.949Z,3.58
2019-02-09T02:14:24.350Z,4.30
2019-02-09T02:16:55.826Z,4.20
2019-02-09T02:19:28.202Z,3.60
2019-02-09T02:21:59.652Z,3.55
2019-02-09T02:24:31.081Z,3.08
2019-02-09T02:27:02.493Z,2.80
2019-02-09T02:29:34.321Z,2.72
2019-02-09T02:32:05.748Z,2.30
2019-02-09T02:34:37.269Z,2.25
2019-02-09T02:37:08.664Z,2.35
2019-02-09T02:39:40.015Z,2.30
2019-02-09T02:42:11.463Z,2.33
2019-02-09T02:44:42.937Z,2.10
2019-02-09T02:47:14.370Z,1.92
2019-02-09T02:49:45.734Z,2.40
2019-02-09T02:52:17.066Z,2.35
2019-02-09T02:54:48.545Z,2.10
2019-02-09T02:57:19.955Z,1.90
2019-02-09T02:59:51.453Z,2.08
2019-02-09T03:02:23.170Z,1.90
2019-02-09T03:04:54.922Z,2.25
2019-02-09T03:07:28.810Z,1.90
2019-02-09T03:10:00.186Z,2.00
2019-02-09T03:12:31.638Z,2.00
2019-02-09T03:15:03.029Z,1.80
2019-02-09T03:17:34.589Z,2.12
2019-02-09T03:20:08.607Z,2.00
2019-02-09T03:22:40.115Z,2.30
2019-02-09T03:25:15.357Z,2.30
2019-02-09T03:27:48.686Z,2.12
2019-02-09T03:33:22.773Z,2.40
2019-02-09T03:35:54.207Z,2.37
2019-02-09T03:38:25.555Z,2.25
2019-02-09T03:40:56.981Z,2.50
2019-02-09T03:43:28.314Z,2.33
2019-02-09T03:45:59.987Z,2.40
2019-02-09T03:48:31.498Z,2.20
2019-02-09T03:51:02.882Z,2.85
2019-02-09T03:53:34.703Z,3.00
2019-02-09T03:56:06.198Z,2.25
2019-02-09T03:58:37.751Z,2.60
2019-02-09T04:01:09.234Z,2.70
2019-02-09T04:03:40.721Z,2.33
2019-02-09T04:06:12.447Z,2.15
2019-02-09T04:08:44.211Z,2.22
2019-02-09T04:11:15.640Z,1.90
2019-02-09T04:13:47.127Z,1.65
2019-02-09T04:16:18.545Z,1.92
2019-02-09T04:18:49.983Z,1.70
2019-02-09T04:21:22.538Z,1.92
2019-02-09T04:23:53.999Z,1.70
2019-02-09T04:26:25.401Z,1.55
2019-02-09T04:28:56.754Z,1.50
2019-02-09T04:31:28.256Z,1.82
2019-02-09T04:33:59.686Z,1.35
2019-02-09T04:36:31.208Z,1.35
2019-02-09T04:39:04.436Z,1.70
2019-02-09T04:41:35.995Z,1.82
2019-02-09T04:44:07.384Z,1.80
2019-02-09T04:46:38.851Z,1.80
2019-02-09T04:49:10.337Z,1.77
2019-02-09T04:51:41.890Z,1.95
2019-02-09T04:54:14.348Z,1.80
2019-02-09T04:56:48.638Z,1.57
2019-02-09T04:59:28.615Z,1.45
2019-02-09T05:02:03.286Z,1.75
2019-02-09T05:04:35.293Z,1.77
2019-02-09T05:07:07.200Z,1.85
2019-02-09T05:09:38.875Z,2.00
2019-02-09T05:12:11.086Z,2.17
2019-02-09T05:14:54.168Z,1.60
2019-02-09T05:17:48.743Z,1.82
2019-02-09T05:20:25.404Z,1.50
2019-02-09T05:23:00.229Z,1.50
2019-02-09T05:25:35.411Z,1.80
2019-02-09T05:28:11.255Z,1.70
2019-02-09T05:31:04.325Z,1.95
2019-02-09T05:33:40.414Z,1.60
2019-02-09T05:36:12.285Z,1.65
2019-02-09T05:38:50.391Z,1.75
2019-02-09T05:41:27.859Z,1.40
2019-02-09T05:44:13.112Z,1.70
2019-02-09T05:47:02.611Z,1.60
2019-02-09T05:50:14.384Z,1.50
2019-02-09T05:53:29.153Z,2.10
2019-02-09T05:56:06.484Z,1.75
2019-02-09T05:59:09.221Z,1.80
2019-02-09T06:01:42.382Z,1.62
2019-02-09T06:04:18.911Z,1.92
2019-02-09T06:06:58.086Z,1.70
2019-02-09T06:10:04.156Z,1.60
2019-02-09T06:13:31.103Z,1.60
2019-02-09T06:16:15.013Z,1.82
2019-02-09T06:19:10.736Z,1.87
2019-02-09T06:21:50.154Z,1.67
2019-02-09T06:24:48.249Z,1.90
2019-02-09T06:27:42.712Z,1.77
2019-02-09T06:30:37.932Z,2.00
2019-02-09T06:33:40.717Z,1.80
2019-02-09T06:36:40.403Z,1.85
2019-02-09T06:39:25.666Z,2.10
2019-02-09T06:42:21.960Z,2.00
2019-02-09T06:45:04.932Z,2.30
2019-02-09T06:48:03.143Z,1.95
2019-02-09T06:51:02.817Z,2.87
2019-02-09T06:56:38.723Z,2.00
2019-02-09T06:59:38.390Z,2.08
2019-02-09T07:02:22.901Z,2.27
2019-02-09T07:05:36.083Z,1.90
2019-02-09T07:08:38.172Z,1.72
2019-02-09T07:11:28.185Z,2.10
2019-02-09T07:14:02.074Z,2.42
2019-02-09T07:16:46.898Z,1.90
2019-02-09T07:19:23.562Z,2.10
2019-02-09T07:22:20.354Z,2.25
2019-02-09T07:24:57.234Z,1.92
2019-02-09T07:27:30.715Z,2.15
2019-02-09T07:30:46.315Z,1.95
2019-02-09T07:33:25.346Z,1.70
2019-02-09T07:36:09.401Z,2.08
2019-02-09T07:39:10.341Z,1.67
2019-02-09T07:41:40.413Z,2.00
2019-02-09T07:44:45.301Z,1.70
2019-02-09T07:47:24.220Z,1.70
2019-02-09T07:50:39.338Z,2.15
2019-02-09T07:53:43.609Z,1.90
2019-02-09T07:56:26.263Z,1.95
2019-02-09T07:59:04.933Z,1.60
2019-02-09T08:05:59.320Z,1.70
2019-02-09T08:08:31.196Z,1.55
2019-02-09T08:11:14.226Z,2.17
2019-02-09T08:14:37.331Z,1.80
2019-02-09T08:17:31.725Z,1.80
2019-02-09T08:20:19.731Z,2.00
2019-02-09T08:22:51.899Z,1.55
2019-02-09T08:25:26.360Z,2.05
2019-02-09T08:28:07.477Z,1.70
2019-02-09T08:30:51.785Z,1.67
2019-02-09T08:33:44.165Z,1.60
2019-02-09T08:36:30.510Z,2.17
2019-02-09T08:39:16.370Z,1.72
2019-02-09T08:41:50.690Z,1.25
2019-02-09T08:44:32.217Z,1.40
2019-02-09T08:47:10.326Z,1.57
2019-02-09T08:49:50.632Z,1.30
2019-02-09T08:52:25.275Z,1.75
2019-02-09T08:55:10.603Z,1.50
2019-02-09T08:57:47.766Z,1.60
2019-02-09T09:00:26.140Z,1.50
2019-02-09T09:02:58.742Z,1.62
2019-02-09T09:05:34.214Z,1.80
2019-02-09T09:08:08.864Z,1.45
2019-02-09T09:10:54.766Z,1.50
2019-02-09T09:13:33.125Z,1.65
2019-02-09T09:16:13.040Z,1.85
2019-02-09T09:18:53.660Z,2.12
2019-02-09T09:21:29.812Z,1.80
2019-02-09T09:24:06.672Z,1.70
2019-02-09T09:26:50.390Z,1.77
2019-02-09T09:29:26.500Z,1.77
2019-02-09T09:32:02.554Z,1.65
2019-02-09T09:34:38.696Z,2.02
2019-02-09T09:37:13.118Z,1.60
2019-02-09T09:39:45.452Z,1.65
2019-02-09T09:42:17.593Z,1.65
2019-02-09T09:45:02.396Z,1.80
2019-02-09T09:47:41.212Z,1.90
2019-02-09T09:50:22.031Z,2.22
2019-02-09T09:52:56.620Z,2.00
2019-02-09T09:55:33.087Z,1.95
2019-02-09T09:58:17.430Z,1.80
2019-02-09T10:01:11.097Z,1.47
2019-02-09T10:03:44.876Z,2.10
2019-02-09T10:06:18.216Z,1.47
2019-02-09T10:09:20.167Z,1.35
2019-02-09T10:12:20.701Z,1.40
2019-02-09T10:15:02.672Z,1.52
2019-02-09T10:17:38.918Z,1.90
2019-02-09T10:20:45.569Z,1.40
2019-02-09T10:23:50.032Z,1.77
2019-02-09T10:31:57.329Z,1.57
2019-02-09T10:34:31.519Z,1.87
2019-02-09T10:37:07.548Z,1.90
2019-02-09T10:39:44.388Z,1.80
2019-02-09T10:42:17.485Z,1.42
2019-02-09T10:44:55.869Z,2.20
2019-02-09T10:47:29.866Z,2.20
2019-02-09T10:50:05.649Z,1.72
2019-02-09T10:52:52.019Z,2.30
2019-02-09T10:55:29.265Z,1.98
2019-02-09T10:58:02.847Z,1.72
2019-02-09T11:00:50.135Z,2.12
2019-02-09T11:03:24.155Z,1.30
2019-02-09T11:06:00.255Z,1.98
2019-02-09T11:09:34.344Z,1.75
2019-02-09T11:12:57.997Z,2.15
2019-02-09T11:27:03.553Z,2.00
2019-02-09T11:29:34.906Z,2.12
2019-02-09T11:32:26.423Z,2.00
2019-02-09T11:34:57.892Z,2.67
2019-02-09T11:37:29.406Z,2.45
2019-02-09T11:43:12.186Z,2.10
2019-02-09T11:46:25.703Z,1.75
2019-02-09T11:52:50.009Z,2.20
2019-02-09T11:55:35.769Z,2.40
2019-02-09T11:58:20.863Z,2.75
2019-02-09T12:01:01.534Z,2.30
2019-02-09T12:03:54.645Z,1.90
2019-02-09T12:06:42.443Z,2.42
2019-02-09T12:09:16.482Z,2.10
2019-02-09T12:12:10.098Z,2.02
2019-02-09T12:14:48.666Z,2.45
2019-02-09T12:17:38.771Z,1.82
2019-02-09T12:20:26.372Z,1.92
2019-02-09T12:23:00.089Z,2.08
2019-02-09T12:25:41.752Z,2.17
2019-02-09T12:28:29.401Z,2.10
2019-02-09T12:31:15.952Z,2.72
2019-02-09T12:34:03.677Z,2.70
2019-02-09T12:36:45.179Z,2.10
2019-02-09T12:39:17.427Z,2.05
2019-02-09T12:41:49.742Z,1.80
2019-02-09T12:44:21.454Z,1.80
2019-02-09T12:46:53.426Z,2.00
2019-02-09T12:49:25.467Z,1.90
2019-02-09T12:51:57.331Z,2.00
2019-02-09T12:54:29.135Z,1.77
2019-02-09T12:57:00.952Z,2.17
2019-02-09T12:59:35.634Z,1.90
2019-02-09T13:02:08.070Z,2.15
2019-02-09T13:04:45.529Z,2.20
2019-02-09T13:07:16.920Z,2.15
2019-02-09T13:09:50.124Z,2.05
2019-02-09T13:12:23.423Z,2.20
2019-02-09T13:14:59.483Z,1.80
2019-02-09T13:17:33.728Z,2.47
2019-02-09T13:20:07.438Z,1.85
2019-02-09T13:22:39.047Z,1.70
2019-02-09T13:25:12.235Z,1.72
2019-02-09T13:27:44.270Z,1.70
2019-02-09T13:30:24.079Z,2.00
2019-02-09T13:32:55.671Z,2.05
2019-02-09T13:35:27.083Z,2.75
2019-02-09T13:37:58.635Z,2.20
2019-02-09T13:40:30.582Z,2.10
2019-02-09T13:43:02.807Z,1.87
2019-02-09T13:45:40.488Z,2.10
2019-02-09T13:48:11.943Z,2.05
2019-02-09T13:50:43.675Z,1.82
2019-02-09T13:53:15.125Z,2.60
2019-02-09T13:55:54.869Z,2.45
2019-02-09T13:58:30.607Z,2.08
2019-02-09T14:01:03.646Z,1.95
2019-02-09T14:03:35.335Z,1.87
2019-02-09T14:06:08.156Z,1.80
2019-02-09T14:08:40.061Z,1.85
2019-02-09T14:11:18.697Z,1.90
2019-02-09T14:13:51.560Z,1.60
2019-02-09T14:16:23.320Z,2.10
2019-02-09T14:18:54.805Z,2.05
2019-02-09T14:21:26.254Z,2.12
2019-02-09T14:23:57.893Z,1.87
2019-02-09T14:26:29.560Z,2.00
2019-02-09T14:29:04.453Z,2.08
2019-02-09T14:31:35.966Z,2.30
2019-02-09T14:34:07.471Z,2.05
2019-02-09T14:36:41.959Z,2.00
2019-02-09T14:39:13.781Z,1.85
2019-02-09T14:41:45.493Z,2.15
2019-02-09T14:44:17.714Z,2.15
2019-02-09T14:46:49.223Z,1.80
2019-02-09T14:49:20.624Z,1.80
2019-02-09T14:51:52.115Z,2.10
2019-02-09T14:54:23.600Z,1.82
2019-02-09T14:56:55.075Z,2.10
2019-02-09T14:59:26.513Z,1.77
2019-02-09T15:01:58.016Z,2.20
2019-02-09T15:04:30.470Z,2.20
2019-02-09T15:07:01.892Z,1.72
2019-02-09T15:09:33.423Z,2.33
2019-02-09T15:12:05.000Z,1.55
2019-02-09T15:14:36.570Z,1.95
2019-02-09T15:17:08.336Z,2.00
2019-02-09T15:19:41.902Z,2.72
2019-02-09T15:22:17.355Z,3.83
2019-02-09T15:25:01.159Z,8.65
2019-02-09T15:27:32.727Z,5.70
2019-02-09T15:30:04.986Z,5.87
2019-02-09T15:32:36.551Z,2.80
2019-02-09T15:35:10.610Z,2.30
2019-02-09T15:37:42.086Z,2.83
2019-02-09T15:40:17.177Z,2.75
2019-02-09T15:42:48.765Z,2.27
2019-02-09T15:45:21.136Z,2.30
2019-02-09T15:47:55.420Z,2.52
2019-02-09T15:50:27.596Z,2.20
2019-02-09T15:52:59.303Z,1.82
2019-02-09T15:55:31.111Z,2.00
2019-02-09T15:58:02.642Z,2.20
2019-02-09T16:00:34.371Z,2.30
2019-02-09T16:03:06.044Z,1.98
2019-02-09T16:05:37.683Z,2.55
2019-02-09T16:08:10.179Z,2.27
2019-02-09T16:10:41.709Z,2.35
2019-02-09T16:13:13.282Z,2.00
2019-02-09T16:15:46.057Z,2.72
2019-02-09T16:18:17.613Z,2.50
2019-02-09T16:20:49.190Z,2.60
2019-02-09T16:23:20.716Z,2.70
2019-02-09T16:25:52.158Z,2.87
2019-02-09T16:28:23.787Z,2.98
2019-02-09T16:30:55.439Z,2.62
2019-02-09T16:33:27.237Z,3.33
2019-02-09T16:35:59.069Z,2.80
2019-02-09T16:38:30.899Z,3.77
2019-02-09T16:41:02.526Z,2.80
2019-02-09T16:43:34.155Z,3.60
2019-02-09T16:46:06.137Z,2.62
2019-02-09T16:48:39.159Z,3.12
2019-02-09T16:51:10.993Z,4.40
2019-02-09T16:53:42.517Z,4.60
2019-02-09T16:56:13.951Z,4.20
2019-02-09T16:58:45.688Z,3.55
2019-02-09T17:01:17.164Z,3.47
2019-02-09T17:03:48.800Z,3.10
2019-02-09T17:06:20.355Z,3.50
2019-02-09T17:08:51.825Z,2.98
2019-02-09T17:11:23.297Z,2.85
2019-02-09T17:13:54.762Z,3.27
2019-02-09T17:16:26.510Z,2.58
2019-02-09T17:18:57.899Z,2.98
2019-02-09T17:21:29.303Z,2.80
2019-02-09T17:24:00.839Z,3.20
2019-02-09T17:26:32.325Z,3.30
2019-02-09T17:29:03.747Z,2.80
2019-02-09T17:31:35.227Z,3.10
2019-02-09T17:34:06.872Z,3.60
2019-02-09T17:36:38.300Z,2.70
2019-02-09T17:39:10.690Z,3.20
2019-02-09T17:41:42.839Z,3.65
2019-02-09T17:44:14.181Z,7.67
2019-02-09T17:46:45.620Z,4.60
2019-02-09T17:49:17.045Z,5.25
2019-02-09T17:51:48.385Z,3.45
2019-02-09T17:54:19.801Z,2.67
2019-02-09T17:56:50.630Z,2.92
2019-02-09T17:59:22.089Z,3.05
2019-02-09T18:01:53.580Z,3.17
2019-02-09T18:04:26.604Z,3.40
2019-02-09T18:06:58.136Z,3.10
2019-02-09T18:09:29.739Z,3.20
2019-02-09T18:12:04.181Z,4.90
2019-02-09T18:14:35.811Z,6.58
2019-02-09T18:17:07.267Z,6.33
2019-02-09T18:19:38.740Z,4.60
2019-02-09T18:22:10.132Z,3.40
2019-02-09T18:24:41.473Z,2.60
2019-02-09T18:27:12.965Z,3.15
2019-02-09T18:29:44.399Z,3.15
2019-02-09T18:32:15.895Z,2.85
2019-02-09T18:34:47.378Z,2.72
2019-02-09T18:37:18.859Z,4.00
2019-02-09T18:39:50.756Z,2.50
2019-02-09T18:42:24.913Z,3.02
2019-02-09T18:44:56.680Z,3.37
2019-02-09T18:47:28.131Z,3.25
2019-02-09T18:50:00.450Z,4.80
2019-02-09T18:52:32.035Z,4.37
2019-02-09T18:55:03.512Z,3.00
2019-02-09T18:57:34.966Z,2.75
2019-02-09T19:00:08.211Z,2.50
2019-02-09T19:02:39.925Z,3.42
2019-02-09T19:05:12.248Z,3.00
2019-02-09T19:07:44.119Z,3.00
2019-02-09T19:10:24.144Z,2.60
2019-02-09T19:12:55.739Z,2.52
2019-02-09T19:15:27.714Z,3.92
2019-02-09T19:17:59.243Z,3.58
2019-02-09T19:20:43.493Z,3.98
2019-02-09T19:23:15.068Z,4.30
2019-02-09T19:25:46.450Z,3.70
2019-02-09T19:28:17.886Z,4.20
2019-02-09T19:30:49.363Z,3.65
2019-02-09T19:33:20.770Z,3.15
2019-02-09T19:35:52.317Z,3.05
2019-02-09T19:38:23.849Z,3.30
2019-02-09T19:40:55.325Z,3.30
2019-02-09T19:43:26.869Z,3.98
2019-02-09T19:45:58.296Z,3.47
2019-02-09T19:48:29.758Z,3.00
2019-02-09T19:51:01.202Z,2.62
2019-02-09T19:53:32.590Z,3.95
2019-02-09T19:56:04.287Z,3.35
2019-02-09T19:58:36.732Z,2.75
2019-02-09T20:01:08.480Z,4.60
2019-02-09T20:03:39.906Z,5.12
2019-02-09T20:06:11.440Z,5.97
2019-02-09T20:08:42.868Z,5.78
2019-02-09T20:11:15.114Z,5.67
2019-02-09T20:13:47.770Z,3.92
2019-02-09T20:16:19.243Z,4.67
2019-02-09T20:18:51.844Z,3.40
2019-02-09T20:21:23.398Z,3.70
2019-02-09T20:23:54.798Z,3.40
2019-02-09T20:26:26.559Z,3.47
2019-02-09T20:28:58.047Z,3.80
2019-02-09T20:31:29.563Z,4.15
2019-02-09T20:34:01.016Z,3.30
2019-02-09T20:36:57.007Z,3.95
2019-02-09T20:39:28.491Z,3.08
2019-02-09T20:42:00.080Z,3.55
2019-02-09T20:44:31.564Z,3.40
2019-02-09T20:47:03.024Z,3.77
2019-02-09T20:49:34.446Z,3.22
2019-02-09T20:52:05.960Z,2.85
2019-02-09T20:54:37.387Z,2.60
2019-02-09T20:57:08.820Z,3.40
2019-02-09T20:59:40.285Z,3.40
2019-02-09T21:02:11.730Z,4.05
2019-02-09T21:04:43.495Z,3.40
2019-02-09T21:07:15.003Z,3.83
2019-02-09T21:09:46.395Z,3.87
2019-02-09T21:12:17.967Z,3.80
2019-02-09T21:14:49.418Z,4.05
2019-02-09T21:17:20.949Z,3.72
2019-02-09T21:19:52.429Z,3.30
2019-02-09T21:22:23.884Z,3.52
2019-02-09T21:24:55.326Z,4.10
2019-02-09T21:27:26.710Z,3.75
2019-02-09T21:29:58.230Z,5.17
2019-02-09T21:32:29.729Z,4.70
2019-02-09T21:35:01.161Z,3.95
2019-02-09T21:37:32.763Z,4.03
2019-02-09T21:40:05.419Z,4.33
2019-02-09T21:42:36.892Z,4.35
2019-02-09T21:45:10.227Z,4.45
2019-02-09T21:47:41.809Z,4.10
2019-02-09T21:50:17.977Z,4.47
2019-02-09T21:52:49.542Z,4.42
2019-02-09T21:55:21.224Z,4.42
2019-02-09T21:57:52.661Z,4.97
2019-02-09T22:00:38.660Z,4.25
2019-02-09T22:03:12.062Z,4.03
2019-02-09T22:05:51.502Z,5.25
2019-02-09T22:08:19.536Z,3.90
2019-02-09T22:10:51.144Z,4.37
2019-02-09T22:13:22.757Z,4.30
2019-02-09T22:15:54.201Z,3.77
2019-02-09T22:18:25.751Z,3.40
2019-02-09T22:20:57.594Z,4.37
2019-02-09T22:23:29.007Z,4.55
2019-02-09T22:26:00.504Z,5.03
2019-02-09T22:28:32.343Z,4.92
2019-02-09T22:31:04.118Z,6.22
2019-02-09T22:33:35.638Z,5.25
2019-02-09T22:36:07.149Z,4.72
2019-02-09T22:38:38.534Z,5.20
2019-02-09T22:41:10.001Z,5.05
2019-02-09T22:43:41.877Z,4.75
2019-02-09T22:46:13.215Z,5.92
2019-02-09T22:48:44.653Z,4.42
2019-02-09T22:51:16.189Z,4.78
2019-02-09T22:53:47.594Z,4.78
2019-02-09T22:56:19.034Z,4.20
2019-02-09T22:58:50.515Z,4.25
2019-02-09T23:01:51.500Z,4.55
2019-02-09T23:04:54.024Z,4.50
2019-02-09T23:07:32.193Z,5.15
2019-02-09T23:10:08.699Z,4.65
2019-02-09T23:12:48.115Z,4.85
2019-02-09T23:15:13.283Z,5.45
2019-02-09T23:17:44.762Z,4.83
2019-02-09T23:20:16.134Z,4.17
2019-02-09T23:22:47.536Z,4.00
2019-02-09T23:25:18.952Z,4.95
2019-02-09T23:27:51.440Z,5.17
2019-02-09T23:30:22.952Z,5.03
2019-02-09T23:32:54.343Z,4.80
2019-02-09T23:35:25.782Z,4.80
2019-02-09T23:37:57.242Z,4.62
2019-02-09T23:40:28.793Z,4.92
2019-02-09T23:43:00.253Z,4.28
2019-02-09T23:45:31.680Z,5.25
2019-02-09T23:48:03.149Z,4.70
2019-02-09T23:50:35.010Z,4.40
2019-02-09T23:53:06.448Z,4.65
2019-02-09T23:55:37.883Z,4.40
2019-02-09T23:58:09.239Z,4.87
